createdAt,value
2022-11-28T07:56:35.009Z,3.95
2022-11-28T07:59:47.011Z,4.16
2022-11-28T08:14:08.785Z,4.12
2022-11-28T08:17:11.269Z,4.52
2022-11-28T08:28:56.972Z,4.33
2022-11-28T08:39:16.577Z,4.35
2022-11-28T08:42:17.771Z,4.58
2022-11-28T08:56:41.564Z,4.21
2022-11-28T09:13:39.364Z,3.95
2022-11-28T09:26:14.229Z,4.03
2022-11-28T09:29:16.677Z,4.32
2022-11-28T09:40:04.721Z,4.08
2022-11-28T09:49:47.674Z,3.97
2022-11-28T09:52:57.706Z,4.16
2022-11-28T09:56:05.266Z,4.26
2022-11-28T09:59:21.332Z,4.21
2022-11-28T10:02:32.766Z,4.25
2022-11-28T10:05:43.022Z,4.32
2022-11-28T10:14:33.177Z,4.33
2022-11-28T10:17:49.979Z,4.43
2022-11-28T10:20:57.828Z,4.55
2022-11-28T10:24:04.577Z,4.75
2022-11-28T10:27:07.215Z,4.82
2022-11-28T10:30:19.180Z,4.84
2022-11-28T10:33:25.321Z,4.59
2022-11-28T10:36:32.383Z,4.57
2022-11-28T10:39:36.693Z,4.64
2022-11-28T10:42:48.525Z,4.73
2022-11-28T10:46:02.304Z,4.77
2022-11-28T10:49:18.012Z,4.75
2022-11-28T10:58:49.649Z,4.28
2022-11-28T11:08:30.975Z,4.04
2022-11-28T11:11:38.112Z,4.28
2022-11-28T11:14:40.877Z,4.37
2022-11-28T11:17:43.523Z,4.44
2022-11-28T11:20:46.018Z,4.50
2022-11-28T11:24:13.587Z,4.52
2022-11-28T11:27:20.233Z,4.55
2022-11-28T11:30:27.819Z,4.59
2022-11-28T11:33:35.205Z,4.73
2022-11-28T11:36:38.333Z,4.77
2022-11-28T11:39:50.354Z,4.70
2022-11-28T11:42:54.180Z,4.65
2022-11-28T11:46:07.368Z,4.77
2022-11-28T11:49:29.407Z,4.88
2022-11-28T11:52:31.899Z,4.82
2022-11-28T11:55:45.490Z,4.76
2022-11-28T11:58:52.875Z,4.77
2022-11-28T12:02:00.890Z,4.83
2022-11-28T12:05:06.331Z,4.91
2022-11-28T12:08:16.340Z,4.78
2022-11-28T12:11:26.168Z,4.88
2022-11-28T12:14:31.145Z,4.99
2022-11-28T12:21:14.482Z,4.94
2022-11-28T12:24:23.815Z,4.87
2022-11-28T12:27:40.695Z,4.88
2022-11-28T12:30:58.334Z,4.86
2022-11-28T12:34:16.576Z,4.87
2022-11-28T12:38:02.616Z,4.86
2022-11-28T12:41:14.974Z,4.94
2022-11-28T12:53:40.450Z,4.41
2022-11-28T13:17:42.069Z,4.04
2022-11-28T13:33:52.313Z,3.90
